Time;durP1;ratioP1;P1;durP2;ratioP2;P2;SDS_P1;SDS_P2;PMS_P1;PMS_P2;Temp;Humidity;BMP_temperature;BMP_pressure;BME280_temperature;BME280_humidity;BME280_pressure;Samples;Min_cycle;Max_cycle;Signal;HPM_P1;HPM_P2
2022/08/22 00:01:38;;;;;;;21.85;14.75;;;;;;;21.67;100.00;98516.81;4354898;32;20028;-72
2022/08/22 00:04:17;;;;;;;18.17;14.87;;;;;;;21.65;100.00;98519.09;4355432;32;20060;-72
2022/08/22 00:07:12;;;;;;;24.33;15.52;;;;;;;21.65;100.00;98519.09;4345838;32;20062;-72
2022/08/22 00:09:48;;;;;;;16.45;14.45;;;;;;;21.67;100.00;98511.34;4366078;32;20362;-72
2022/08/22 00:12:33;;;;;;;22.62;15.25;;;;;;;21.51;100.00;98485.69;4378811;32;20096;-72
2022/08/22 00:15:05;;;;;;;22.15;15.95;;;;;;;21.77;100.00;98516.38;4384202;32;20061;-72
2022/08/22 00:17:53;;;;;;;23.52;16.60;;;;;;;21.85;100.00;98511.16;4380123;32;20046;-71
2022/08/22 00:20:25;;;;;;;19.85;16.15;;;;;;;21.60;100.00;98467.22;4381176;32;20081;-71
2022/08/22 00:22:56;;;;;;;19.33;17.20;;;;;;;21.90;100.00;98519.16;4353905;32;20066;-70
2022/08/22 00:25:29;;;;;;;20.30;17.00;;;;;;;21.95;100.00;98516.22;4355632;32;20043;-71
2022/08/22 00:28:02;;;;;;;20.42;17.58;;;;;;;21.85;100.00;98508.44;4355513;32;20079;-70
2022/08/22 00:30:34;;;;;;;24.85;17.65;;;;;;;21.91;100.00;98526.28;4354918;32;20070;-70
2022/08/22 00:33:16;;;;;;;21.98;16.83;;;;;;;21.91;100.00;98529.00;4338298;33;20031;-71
2022/08/22 00:35:50;;;;;;;19.90;17.37;;;;;;;21.67;100.00;98494.09;4332415;33;20060;-73
2022/08/22 00:38:32;;;;;;;22.62;18.00;;;;;;;21.77;100.00;98527.34;4335392;33;20618;-71
2022/08/22 00:41:06;;;;;;;19.55;17.52;;;;;;;21.55;100.00;98490.16;4337914;33;20565;-71
2022/08/22 00:44:10;;;;;;;23.35;17.25;;;;;;;21.71;100.00;98534.16;4322297;33;20048;-72
2022/08/22 00:46:36;;;;;;;18.90;16.02;;;;;;;21.74;100.00;98532.69;4321926;33;20386;-71
2022/08/22 00:49:21;;;;;;;19.12;16.23;;;;;;;21.78;100.00;98528.16;4323345;33;20062;-71
2022/08/22 00:51:53;;;;;;;20.45;16.85;;;;;;;21.80;100.00;98530.56;4325294;33;20045;-71
2022/08/22 00:54:36;;;;;;;21.90;17.20;;;;;;;21.80;100.00;98525.09;4315997;33;20058;-73
2022/08/22 00:57:40;;;;;;;19.20;15.70;;;;;;;21.82;100.00;98528.28;4310914;33;20178;-71
2022/08/22 01:00:26;;;;;;;21.42;16.92;;;;;;;21.65;100.00;98535.53;4331804;32;20059;-71
2022/08/22 01:03:04;;;;;;;18.85;16.33;;;;;;;21.68;100.00;98537.56;4349170;32;20040;-71
2022/08/22 01:05:43;;;;;;;22.02;18.42;;;;;;;21.67;100.00;98535.97;4367116;32;20117;-73
2022/08/22 01:08:47;;;;;;;21.30;17.02;;;;;;;21.44;100.00;98502.62;4387063;32;20400;-71
2022/08/22 01:11:41;;;;;;;21.20;17.60;;;;;;;21.52;100.00;98498.25;4392263;32;20043;-72
2022/08/22 01:14:18;;;;;;;23.42;17.85;;;;;;;21.44;100.00;98497.13;4403623;32;20035;-74
2022/08/22 01:16:59;;;;;;;23.70;17.25;;;;;;;21.72;100.00;98530.28;4412766;32;20773;-71
2022/08/22 01:20:00;;;;;;;19.80;16.10;;;;;;;21.62;100.00;98533.47;4401858;32;20517;-72
2022/08/22 01:23:04;;;;;;;17.60;14.98;;;;;;;21.63;100.00;98535.03;4401890;32;20039;-71
2022/08/22 01:25:50;;;;;;;17.67;15.77;;;;;;;21.57;100.00;98530.91;4408412;32;20046;-73
2022/08/22 01:28:32;;;;;;;22.85;16.95;;;;;;;21.64;100.00;98536.66;4387829;32;20452;-71
2022/08/22 01:31:27;;;;;;;21.33;15.93;;;;;;;21.76;100.00;98541.38;4399724;32;20042;-72
2022/08/22 01:34:19;;;;;;;20.27;16.62;;;;;;;21.90;100.00;98541.09;4398945;32;20177;-71
2022/08/22 01:36:45;;;;;;;23.23;15.48;;;;;;;21.70;100.00;98546.28;4401731;32;20051;-72
2022/08/22 01:39:46;;;;;;;21.05;15.85;;;;;;;21.71;100.00;98545.13;4391533;32;20054;-71
2022/08/22 01:42:40;;;;;;;21.55;15.50;;;;;;;21.75;100.00;98548.00;4386368;32;20706;-72
2022/08/22 01:45:33;;;;;;;21.37;15.77;;;;;;;21.87;100.00;98541.78;4383415;32;20043;-74
2022/08/22 01:48:18;;;;;;;18.42;14.95;;;;;;;21.65;100.00;98535.53;4392169;32;20047;-71
2022/08/22 01:50:53;;;;;;;16.73;14.23;;;;;;;21.66;100.00;98542.59;4398098;32;20362;-72
2022/08/22 01:53:35;;;;;;;18.67;14.95;;;;;;;21.70;100.00;98543.53;4383103;32;20028;-72
2022/08/22 01:56:19;;;;;;;16.35;13.40;;;;;;;21.73;100.00;98537.37;4382715;32;20051;-72
2022/08/22 01:59:00;;;;;;;17.50;14.77;;;;;;;21.47;100.00;98498.41;4394171;32;20144;-72
2022/08/22 02:01:39;;;;;;;19.35;14.77;;;;;;;21.65;100.00;98530.06;4398626;32;20184;-70
2022/08/22 02:04:11;;;;;;;23.67;14.98;;;;;;;21.64;100.00;98522.97;4391922;32;20078;-71
2022/08/22 02:06:50;;;;;;;16.33;14.60;;;;;;;21.50;100.00;98530.66;4368588;32;20057;-70
2022/08/22 02:09:19;;;;;;;16.42;13.07;;;;;;;21.21;100.00;98533.06;4368146;32;20331;-72
2022/08/22 02:11:54;;;;;;;18.83;14.27;;;;;;;21.29;100.00;98528.69;4366021;32;20086;-70
2022/08/22 02:14:31;;;;;;;14.90;12.98;;;;;;;21.20;100.00;98503.28;4367076;32;20028;-71
2022/08/22 02:17:13;;;;;;;19.62;14.55;;;;;;;21.26;100.00;98507.44;4365144;32;20060;-73
2022/08/22 02:19:50;;;;;;;17.35;13.62;;;;;;;21.11;100.00;98491.59;4368468;32;20035;-71
2022/08/22 02:22:26;;;;;;;15.80;13.52;;;;;;;21.21;100.00;98511.16;4368712;32;20043;-71
2022/08/22 02:25:12;;;;;;;23.90;13.62;;;;;;;21.32;100.00;98527.22;4365515;32;20039;-71
2022/08/22 02:27:56;;;;;;;17.80;13.80;;;;;;;21.14;100.00;98507.34;4365630;32;20035;-71
2022/08/22 02:30:48;;;;;;;17.62;13.85;;;;;;;21.18;100.00;98500.09;4366361;32;20042;-71
2022/08/22 02:33:27;;;;;;;18.00;13.35;;;;;;;21.30;100.00;98529.47;4367101;32;20173;-71
2022/08/22 02:36:00;;;;;;;17.27;14.27;;;;;;;21.22;100.00;98534.69;4351973;32;20054;-71
2022/08/22 02:38:47;;;;;;;19.58;15.20;;;;;;;21.10;100.00;98492.75;4353916;32;20048;-72
2022/08/22 02:41:24;;;;;;;17.23;13.65;;;;;;;21.10;100.00;98492.75;4351682;32;20404;-73
2022/08/22 02:43:58;;;;;;;19.50;13.35;;;;;;;21.00;100.00;98489.25;4380448;32;20445;-72
2022/08/22 02:47:20;;;;;;;15.88;13.90;;;;;;;21.09;100.00;98502.88;4383235;32;20026;-72
2022/08/22 02:50:00;;;;;;;15.45;13.10;;;;;;;21.39;100.00;98543.91;4298934;33;20033;-71
2022/08/22 02:52:43;;;;;;;23.00;12.45;;;;;;;21.03;100.00;98505.03;4350611;32;20069;-74
2022/08/22 02:55:18;;;;;;;18.55;12.32;;;;;;;21.41;100.00;98542.44;4353142;32;20043;-72
2022/08/22 02:57:59;;;;;;;17.05;12.70;;;;;;;21.33;100.00;98537.84;4353198;32;20457;-71
2022/08/22 03:00:29;;;;;;;18.62;13.10;;;;;;;21.30;100.00;98541.25;4353494;32;20083;-71
2022/08/22 03:03:01;;;;;;;15.43;12.68;;;;;;;21.18;100.00;98528.25;4353052;33;20091;-71
2022/08/22 03:05:44;;;;;;;15.00;12.90;;;;;;;21.23;100.00;98540.94;4352754;33;20039;-71
2022/08/22 03:08:33;;;;;;;13.68;12.13;;;;;;;21.24;100.00;98537.09;4371608;32;20096;-71
2022/08/22 03:11:03;;;;;;;19.40;12.70;;;;;;;20.96;100.00;98499.25;4373583;32;20055;-71
2022/08/22 03:13:58;;;;;;;15.95;13.32;;;;;;;21.26;100.00;98534.81;4368280;32;20081;-72
2022/08/22 03:17:02;;;;;;;17.95;12.82;;;;;;;21.11;100.00;98506.09;4367913;32;20051;-72
2022/08/22 03:20:04;;;;;;;21.37;12.43;;;;;;;21.42;100.00;98538.56;4362078;32;20105;-72
2022/08/22 03:22:40;;;;;;;13.15;10.85;;;;;;;21.12;100.00;98499.47;4413938;32;20064;-72
2022/08/22 03:25:12;;;;;;;16.62;12.10;;;;;;;21.16;100.00;98502.38;4415683;32;20109;-72
2022/08/22 03:28:00;;;;;;;12.77;11.48;;;;;;;21.32;100.00;98540.91;4411889;32;20031;-74
2022/08/22 03:30:41;;;;;;;13.40;10.77;;;;;;;21.31;100.00;98537.34;4415971;32;20060;-72
2022/08/22 03:33:22;;;;;;;12.50;10.65;;;;;;;20.91;100.00;98532.28;4404113;32;20058;-73
2022/08/22 03:35:57;;;;;;;13.82;10.70;;;;;;;21.14;100.00;98543.75;4399667;32;20057;-72
2022/08/22 03:38:32;;;;;;;13.75;10.80;;;;;;;21.20;100.00;98541.62;4396036;32;20047;-72
2022/08/22 03:41:26;;;;;;;19.37;10.63;;;;;;;21.13;100.00;98544.87;4410472;32;20068;-72
2022/08/22 03:44:11;;;;;;;11.98;10.68;;;;;;;21.15;100.00;98550.03;4415493;32;20068;-71
2022/08/22 03:46:40;;;;;;;17.33;11.23;;;;;;;21.15;100.00;98561.75;4414766;32;20169;-72
2022/08/22 03:49:44;;;;;;;17.27;9.90;;;;;;;21.19;100.00;98550.97;4415175;32;20068;-71
2022/08/22 03:52:28;;;;;;;14.45;10.23;;;;;;;21.35;100.00;98554.72;4391821;32;20077;-71
2022/08/22 03:54:58;;;;;;;13.43;9.90;;;;;;;21.35;100.00;98560.19;4352477;33;20102;-71
2022/08/22 03:58:06;;;;;;;11.40;9.00;;;;;;;21.42;100.00;98560.47;4360283;32;20043;-72
2022/08/22 04:01:01;;;;;;;11.50;9.40;;;;;;;21.31;100.00;98559.25;4367226;32;20126;-71
2022/08/22 04:03:40;;;;;;;13.02;10.43;;;;;;;21.47;100.00;98544.97;4367914;32;20362;-70
2022/08/22 04:06:20;;;;;;;11.52;10.00;;;;;;;21.34;100.00;98539.44;4378782;32;20051;-70
2022/08/22 04:08:52;;;;;;;10.68;8.82;;;;;;;21.20;100.00;98552.56;4382075;32;20085;-71
2022/08/22 04:12:06;;;;;;;13.38;10.25;;;;;;;20.99;100.00;98553.31;4384997;32;20065;-72
2022/08/22 04:14:57;;;;;;;18.20;9.73;;;;;;;21.01;100.00;98520.16;4337089;32;20180;-70
2022/08/22 04:17:40;;;;;;;10.57;9.47;;;;;;;21.05;100.00;98552.00;4362955;32;20069;-70
2022/08/22 04:20:09;;;;;;;12.52;10.57;;;;;;;21.02;100.00;98552.66;4345491;32;20066;-70
2022/08/22 04:23:14;;;;;;;13.00;9.32;;;;;;;20.96;100.00;98556.72;4332898;33;20588;-69
2022/08/22 04:25:46;;;;;;;15.70;8.80;;;;;;;20.82;100.00;98564.34;4315727;33;20055;-70
2022/08/22 04:28:12;;;;;;;11.05;8.13;;;;;;;20.90;100.00;98555.34;4330491;33;20044;-70
2022/08/22 04:30:54;;;;;;;9.85;8.00;;;;;;;20.78;100.00;98558.75;4331133;33;20028;-69
2022/08/22 04:33:32;;;;;;;12.75;8.57;;;;;;;20.11;100.00;98491.91;4314352;33;20073;-70
2022/08/22 04:36:33;;;;;;;10.65;8.10;;;;;;;20.78;100.00;98563.44;4309854;33;20419;-71
2022/08/22 04:39:48;;;;;;;9.98;7.75;;;;;;;20.84;100.00;98567.59;4309796;33;20053;-70
2022/08/22 04:42:18;;;;;;;15.25;8.82;;;;;;;20.88;100.00;98560.31;4252495;33;20088;-70
2022/08/22 04:44:59;;;;;;;15.70;8.02;;;;;;;20.85;100.00;98530.87;4292257;33;20041;-70
2022/08/22 04:47:29;;;;;;;14.68;8.13;;;;;;;20.71;100.00;98574.88;4312557;33;20068;-72
2022/08/22 04:49:56;;;;;;;16.40;9.27;;;;;;;20.51;100.00;98527.12;4315481;33;20577;-70
2022/08/22 04:52:50;;;;;;;14.95;8.05;;;;;;;20.81;100.00;98579.97;4310935;33;20037;-70
2022/08/22 04:55:35;;;;;;;15.32;9.05;;;;;;;20.88;100.00;98576.72;4317774;33;20476;-70
2022/08/22 04:58:23;;;;;;;15.35;9.05;;;;;;;20.88;100.00;98578.66;4296669;33;20032;-70
2022/08/22 05:01:05;;;;;;;13.20;8.25;;;;;;;20.52;100.00;98542.44;4292852;33;20697;-70
2022/08/22 05:03:36;;;;;;;17.12;7.85;;;;;;;20.80;100.00;98578.38;4297603;33;20198;-71
2022/08/22 05:06:05;;;;;;;18.87;8.77;;;;;;;21.04;100.00;98576.97;4307783;33;20037;-71
2022/08/22 05:08:38;;;;;;;12.45;8.25;;;;;;;21.05;100.00;98579.38;4308542;33;20062;-73
2022/08/22 05:11:08;;;;;;;11.88;8.80;;;;;;;21.14;100.00;98586.72;4321124;33;20070;-72
2022/08/22 05:13:46;;;;;;;16.37;8.60;;;;;;;20.92;100.00;98588.63;4319483;33;20032;-71
2022/08/22 05:16:17;;;;;;;15.07;8.10;;;;;;;20.97;100.00;98547.38;4316408;33;20415;-73
2022/08/22 05:18:53;;;;;;;13.80;8.90;;;;;;;21.17;100.00;98586.06;4324435;33;20070;-71
2022/08/22 05:21:27;;;;;;;9.65;7.43;;;;;;;21.23;100.00;98584.75;4310381;33;20321;-70
2022/08/22 05:24:02;;;;;;;12.50;7.55;;;;;;;21.18;100.00;98582.22;4309067;33;20432;-72
2022/08/22 05:26:36;;;;;;;15.98;9.52;;;;;;;21.16;100.00;98584.50;4295396;33;20067;-70
2022/08/22 05:29:08;;;;;;;12.20;7.97;;;;;;;21.14;100.00;98584.00;4325520;33;20070;-70
2022/08/22 05:31:43;;;;;;;11.50;8.43;;;;;;;21.31;100.00;98592.09;4279933;33;20091;-71
2022/08/22 05:34:13;;;;;;;12.93;8.30;;;;;;;21.40;100.00;98590.13;4279811;33;20049;-70
2022/08/22 05:36:47;;;;;;;11.27;8.03;;;;;;;21.20;100.00;98590.87;4278737;33;20037;-70
2022/08/22 05:39:24;;;;;;;12.75;7.15;;;;;;;20.87;100.00;98594.28;4279265;33;20049;-71
2022/08/22 05:41:54;;;;;;;10.65;7.87;;;;;;;20.71;100.00;98599.50;4257639;33;20058;-70
2022/08/22 05:44:24;;;;;;;18.02;9.38;;;;;;;20.55;100.00;98566.38;4265429;33;20051;-72
2022/08/22 05:47:17;;;;;;;10.43;7.85;;;;;;;21.04;100.00;98610.62;4296856;33;20414;-70
2022/08/22 05:50:11;;;;;;;17.00;8.82;;;;;;;20.95;100.00;98607.13;4307387;33;20065;-70
2022/08/22 05:53:05;;;;;;;16.87;8.60;;;;;;;20.81;100.00;98612.00;4315386;33;20045;-73
2022/08/22 05:55:56;;;;;;;17.65;9.27;;;;;;;21.08;100.00;98615.41;4309544;33;20059;-71
2022/08/22 05:58:38;;;;;;;15.13;9.55;;;;;;;21.08;100.00;98609.94;4345286;33;20186;-70
2022/08/22 06:01:22;;;;;;;12.45;9.50;;;;;;;21.12;100.00;98613.63;4353025;32;20319;-70
2022/08/22 06:04:05;;;;;;;15.38;8.95;;;;;;;21.22;100.00;98616.00;4395817;32;20037;-71
2022/08/22 06:06:49;;;;;;;11.20;9.43;;;;;;;20.81;100.00;98582.72;4400922;32;20060;-70
2022/08/22 06:09:33;;;;;;;14.00;10.32;;;;;;;21.10;100.00;98572.91;4399934;32;20078;-71
2022/08/22 06:12:13;;;;;;;11.82;9.60;;;;;;;21.40;100.00;98625.72;4401020;32;20069;-69
2022/08/22 06:15:03;;;;;;;13.85;9.13;;;;;;;21.54;100.00;98622.78;4396450;32;20038;-69
2022/08/22 06:17:36;;;;;;;19.27;9.40;;;;;;;21.41;100.00;98616.38;4374679;32;20106;-70
2022/08/22 06:20:07;;;;;;;12.40;9.15;;;;;;;21.41;100.00;98619.13;4375069;32;20065;-71
2022/08/22 06:22:39;;;;;;;10.68;7.75;;;;;;;21.14;100.00;98623.13;4374209;32;20073;-73
2022/08/22 06:25:13;;;;;;;;;;;;;;;20.95;100.00;98618.06;4328627;33;20032;-69
2022/08/22 06:27:41;;;;;;;14.38;9.68;;;;;;;21.25;100.00;98609.84;4326815;33;20253;-69
2022/08/22 06:30:13;;;;;;;15.45;8.57;;;;;;;21.11;100.00;98565.50;4338557;33;20036;-68
2022/08/22 06:32:44;;;;;;;11.20;7.90;;;;;;;21.22;100.00;98610.50;4335924;33;20146;-69
2022/08/22 06:35:27;;;;;;;11.93;9.20;;;;;;;20.90;100.00;98582.69;4338144;33;20048;-69
2022/08/22 06:37:58;;;;;;;18.15;9.25;;;;;;;21.38;100.00;98614.31;4338775;33;20054;-69
2022/08/22 06:40:27;;;;;;;9.63;7.93;;;;;;;21.09;100.00;98578.72;4337619;32;20072;-69
2022/08/22 06:42:55;;;;;;;28.02;9.75;;;;;;;21.37;100.00;98607.22;4321811;33;20232;-70
2022/08/22 06:45:29;;;;;;;11.45;8.68;;;;;;;21.26;100.00;98580.56;4308434;33;20112;-70
2022/08/22 06:48:15;;;;;;;10.75;8.80;;;;;;;21.48;100.00;98623.28;4310126;33;20098;-72
2022/08/22 06:50:47;;;;;;;12.70;6.30;;;;;;;21.49;100.00;98592.84;4288537;33;20092;-71
2022/08/22 06:53:23;;;;;;;10.98;7.50;;;;;;;21.32;100.00;98615.63;4293057;33;20053;-69
2022/08/22 06:55:58;;;;;;;9.48;7.20;;;;;;;21.61;100.00;98616.75;4291621;33;20062;-70
2022/08/22 06:58:31;;;;;;;10.90;7.97;;;;;;;21.50;100.00;98572.53;4289943;33;20082;-70
2022/08/22 07:01:04;;;;;;;10.00;7.37;;;;;;;21.80;100.00;98590.84;4278469;33;20049;-69
2022/08/22 07:03:39;;;;;;;9.88;7.65;;;;;;;22.05;100.00;98636.41;4248914;33;20061;-72
2022/08/22 07:06:13;;;;;;;10.73;7.35;;;;;;;22.02;100.00;98598.72;4247867;33;20080;-70
2022/08/22 07:08:41;;;;;;;8.35;7.25;;;;;;;22.36;100.00;98606.97;4248041;33;20288;-69
2022/08/22 07:11:20;;;;;;;13.13;8.48;;;;;;;22.47;100.00;98647.34;4252429;33;20038;-69
2022/08/22 07:13:58;;;;;;;9.82;8.32;;;;;;;22.16;100.00;98641.47;4258046;33;20075;-70
2022/08/22 07:16:43;;;;;;;10.98;7.37;;;;;;;21.92;100.00;98599.09;4278824;33;20372;-69
2022/08/22 07:19:40;;;;;;;11.25;7.22;;;;;;;21.95;100.00;98598.44;4268791;33;20102;-71
2022/08/22 07:22:15;;;;;;;12.88;7.30;;;;;;;22.47;100.00;98644.59;4268553;33;20144;-69
2022/08/22 07:24:55;;;;;;;8.40;6.72;;;;;;;22.85;100.00;98640.78;4271627;33;20090;-67
2022/08/22 07:27:37;;;;;;;14.00;7.20;;;;;;;22.77;100.00;98600.53;4245338;33;20034;-68
2022/08/22 07:30:14;;;;;;;8.77;6.57;;;;;;;23.02;100.00;98595.03;4252303;33;20181;-71
2022/08/22 07:32:54;;;;;;;11.68;7.18;;;;;;;22.82;100.00;98597.56;4260706;33;20215;-69
2022/08/22 07:35:28;;;;;;;8.40;6.15;;;;;;;22.82;100.00;98636.00;4291387;33;20049;-70
2022/08/22 07:38:00;;;;;;;11.60;6.55;;;;;;;22.90;100.00;98625.25;4282191;33;20063;-71
2022/08/22 07:40:32;;;;;;;9.68;6.72;;;;;;;23.25;100.00;98614.66;4286156;33;20083;-70
2022/08/22 07:43:14;;;;;;;8.43;5.85;;;;;;;23.34;100.00;98626.31;4287007;33;20436;-70
2022/08/22 07:45:56;;;;;;;9.75;5.97;;;;;;;23.24;100.00;98623.22;4285456;33;20123;-77
2022/08/22 07:48:35;;;;;;;8.18;6.20;;;;;;;23.27;100.00;98626.09;4289189;33;20033;-70
2022/08/22 07:51:07;;;;;;;10.27;6.30;;;;;;;23.30;100.00;98627.34;4304253;33;20445;-70
2022/08/22 07:53:58;;;;;;;11.20;5.95;;;;;;;23.00;100.00;98597.34;4308681;33;20498;-68
2022/08/22 07:56:29;;;;;;;;;;;;;;;23.42;100.00;98624.56;4308279;33;20050;-72
2022/08/22 07:59:02;;;;;;;6.80;4.93;;;;;;;23.31;100.00;98626.19;4310069;33;19962;-71
2022/08/22 08:01:29;;;;;;;9.43;6.47;;;;;;;23.19;100.00;98629.75;4308423;33;20048;-70
2022/08/22 08:04:07;;;;;;;10.50;5.85;;;;;;;23.38;100.00;98629.19;4312663;33;20536;-69
2022/08/22 08:06:34;;;;;;;8.68;6.55;;;;;;;23.42;100.00;98623.78;4314875;33;20077;-75
2022/08/22 08:09:02;;;;;;;8.70;5.85;;;;;;;23.78;100.00;98633.12;4331798;33;20070;-69
2022/08/22 08:11:33;;;;;;;7.35;5.95;;;;;;;23.64;100.00;98625.25;4291139;33;20063;-71
2022/08/22 08:14:06;;;;;;;9.38;5.93;;;;;;;23.86;100.00;98616.50;4277580;33;20067;-69
2022/08/22 08:16:43;;;;;;;8.50;5.22;;;;;;;23.96;100.00;98604.22;4274326;33;20412;-69
2022/08/22 08:19:11;;;;;;;10.77;5.37;;;;;;;24.01;100.00;98622.41;4279382;33;20095;-69
2022/08/22 08:21:48;;;;;;;9.85;5.72;;;;;;;23.82;100.00;98601.03;4288648;33;20176;-69
2022/08/22 08:24:21;;;;;;;14.27;5.45;;;;;;;23.86;100.00;98635.75;4307445;33;20433;-74
2022/08/22 08:30:05;;;;;;;6.70;5.25;;;;;;;23.97;100.00;98636.06;4306715;33;20106;-70
2022/08/22 08:32:36;;;;;;;6.70;5.78;;;;;;;23.82;100.00;98626.59;4306451;33;20104;-69
2022/08/22 08:35:08;;;;;;;9.93;5.03;;;;;;;24.04;100.00;98644.50;4305084;33;20091;-71
2022/08/22 08:37:46;;;;;;;5.60;4.80;;;;;;;23.94;100.00;98610.06;4307718;33;20056;-79
2022/08/22 08:40:27;;;;;;;7.15;5.03;;;;;;;23.95;100.00;98608.13;4302819;33;20048;-69
2022/08/22 08:43:33;;;;;;;10.93;4.93;;;;;;;23.77;100.00;98646.03;4327013;33;20036;-73
2022/08/22 08:46:13;;;;;;;13.35;6.78;;;;;;;23.76;100.00;98649.97;4361216;32;20035;-69
2022/08/22 08:49:18;;;;;;;14.52;6.70;;;;;;;23.64;100.00;98614.25;4364118;32;20112;-70
2022/08/22 08:51:59;;;;;;;10.02;6.10;;;;;;;23.86;100.00;98611.00;4365978;32;20023;-70
2022/08/22 08:54:55;;;;;;;14.87;5.53;;;;;;;24.02;100.00;98646.03;4361005;32;20220;-70
2022/08/22 08:57:36;;;;;;;9.65;5.50;;;;;;;23.93;100.00;98638.72;4353219;32;20055;-69
2022/08/22 09:00:13;;;;;;;9.45;5.75;;;;;;;24.17;100.00;98642.50;4363036;32;20541;-70
2022/08/22 09:02:52;;;;;;;7.47;5.60;;;;;;;24.18;100.00;98649.63;4369204;32;20073;-69
2022/08/22 09:05:33;;;;;;;10.07;6.03;;;;;;;24.06;100.00;98646.91;4377665;32;20099;-77
2022/08/22 09:08:24;;;;;;;10.13;4.93;;;;;;;23.87;100.00;98651.09;4379620;32;20047;-73
2022/08/22 09:11:29;;;;;;;5.32;4.82;;;;;;;24.16;100.00;98646.44;4365435;32;20040;-76
2022/08/22 09:14:05;;;;;;;9.32;5.55;;;;;;;24.34;100.00;98641.41;4366362;32;20035;-73
2022/08/22 09:17:01;;;;;;;8.73;5.50;;;;;;;24.45;100.00;98647.22;4365013;32;20082;-71
2022/08/22 09:19:30;;;;;;;8.35;5.00;;;;;;;24.70;100.00;98636.91;4364437;32;20346;-71
2022/08/22 09:22:03;;;;;;;11.77;4.87;;;;;;;24.52;100.00;98652.91;4349220;32;20101;-71
2022/08/22 09:24:51;;;;;;;13.18;5.72;;;;;;;24.82;100.00;98645.06;4353796;32;20061;-72
2022/08/22 09:27:32;;;;;;;13.48;5.65;;;;;;;24.83;100.00;98640.38;4342563;32;20628;-72
2022/08/22 09:30:16;;;;;;;12.27;5.35;;;;;;;24.94;100.00;98637.88;4336418;32;20075;-73
2022/08/22 09:32:53;;;;;;;9.75;5.18;;;;;;;24.46;100.00;98604.81;4339226;32;20089;-70
2022/08/22 09:35:25;;;;;;;7.97;5.95;;;;;;;24.56;100.00;98615.31;4333706;32;20052;-72
2022/08/22 09:38:25;;;;;;;9.38;4.87;;;;;;;24.92;100.00;98638.25;4336568;33;20509;-73
2022/08/22 09:41:16;;;;;;;9.55;5.07;;;;;;;25.02;100.00;98634.97;4335237;33;20467;-76
2022/08/22 09:44:27;;;;;;;12.05;5.28;;;;;;;24.53;100.00;98628.97;4336182;33;20048;-75
2022/08/22 09:47:11;;;;;;;8.73;5.28;;;;;;;24.44;100.00;98629.09;4334948;33;20054;-72
2022/08/22 09:50:02;;;;;;;11.85;5.60;;;;;;;24.65;100.00;98631.66;4339214;33;20554;-76
2022/08/22 09:52:58;;;;;;;5.68;5.07;;;;;;;24.45;100.00;98625.22;4344813;32;20069;-71
2022/08/22 09:55:54;;;;;;;7.53;6.18;;;;;;;24.49;100.00;98626.09;4367887;32;20065;-70
2022/08/22 09:58:45;;;;;;;8.43;5.10;;;;;;;24.62;100.00;98624.91;4380180;32;20382;-68
2022/08/22 10:01:23;;;;;;;10.73;5.03;;;;;;;24.37;100.00;98595.91;4394506;32;20031;-69
2022/08/22 10:04:27;;;;;;;6.57;5.43;;;;;;;24.57;100.00;98588.59;4383323;32;20052;-71
2022/08/22 10:07:48;;;;;;;7.75;4.97;;;;;;;24.84;100.00;98630.94;4382769;32;20527;-68
2022/08/22 10:10:35;;;;;;;14.05;4.97;;;;;;;25.17;100.00;98633.34;4326942;33;20031;-69
2022/08/22 10:13:12;;;;;;;7.03;5.12;;;;;;;25.36;100.00;98635.41;4350333;32;20390;-68
2022/08/22 10:15:47;;;;;;;18.48;6.03;;;;;;;25.56;100.00;98610.62;4327311;33;20040;-69
2022/08/22 10:18:40;;;;;;;6.30;4.90;;;;;;;25.44;100.00;98632.81;4319696;33;20507;-71
2022/08/22 10:21:38;;;;;;;12.68;6.22;;;;;;;25.22;100.00;98623.22;4321772;33;20157;-69
2022/08/22 10:24:21;;;;;;;9.90;5.10;;;;;;;25.09;100.00;98628.03;4317303;33;20041;-70
2022/08/22 10:26:52;;;;;;;9.65;5.30;;;;;;;25.00;100.00;98593.22;4322925;33;20069;-69
2022/08/22 10:29:24;;;;;;;6.15;4.93;;;;;;;25.27;100.00;98629.25;4321008;33;20044;-74
2022/08/22 10:32:05;;;;;;;9.93;5.22;;;;;;;25.44;100.00;98630.06;4305498;33;20121;-69
2022/08/22 10:34:37;;;;;;;7.53;5.18;;;;;;;24.94;100.00;98602.91;4307397;33;20123;-70
2022/08/22 10:37:03;;;;;;;9.23;5.45;;;;;;;25.05;100.00;98596.84;4304963;33;20059;-70
2022/08/22 10:39:41;;;;;;;7.87;5.43;;;;;;;25.10;100.00;98632.38;4308414;33;20409;-69
2022/08/22 10:42:32;;;;;;;9.27;5.70;;;;;;;25.24;100.00;98616.22;4307290;33;20387;-68
2022/08/22 10:45:18;;;;;;;7.40;4.85;;;;;;;25.20;100.00;98634.59;4333007;33;20081;-69
2022/08/22 10:47:56;;;;;;;11.63;5.18;;;;;;;24.90;100.00;98607.50;4332107;33;20044;-68
2022/08/22 10:50:30;;;;;;;8.60;4.32;;;;;;;25.28;100.00;98632.84;4331436;33;20032;-68
2022/08/22 10:56:02;;;;;;;7.53;4.57;;;;;;;25.02;100.00;98632.22;4334497;33;20050;-72
2022/08/22 10:58:35;;;;;;;15.50;5.30;;;;;;;24.93;100.00;98606.00;4336483;33;20059;-70
2022/08/22 11:01:05;;;;;;;8.75;5.12;;;;;;;25.30;100.00;98625.81;4335124;33;20454;-69
2022/08/22 11:03:58;;;;;;;5.53;4.82;;;;;;;25.42;100.00;98632.34;4352155;32;20039;-68
2022/08/22 11:06:28;;;;;;;9.18;4.80;;;;;;;25.29;100.00;98629.72;4363068;32;20461;-68
2022/08/22 11:09:12;;;;;;;10.60;4.93;;;;;;;25.18;100.00;98636.91;4365448;32;20203;-69
2022/08/22 11:11:44;;;;;;;10.30;4.53;;;;;;;25.00;100.00;98601.47;4360435;32;20074;-69
2022/08/22 11:14:36;;;;;;;8.23;5.97;;;;;;;25.14;100.00;98639.56;4344702;33;20052;-70
2022/08/22 11:17:28;;;;;;;5.53;5.05;;;;;;;25.33;100.00;98630.59;4346766;32;20058;-70
2022/08/22 11:20:18;;;;;;;9.93;5.07;;;;;;;25.54;100.00;98640.50;4355763;32;20058;-70
2022/08/22 11:22:52;;;;;;;18.40;5.40;;;;;;;25.16;100.00;98631.75;4358544;32;20070;-70
2022/08/22 11:25:34;;;;;;;8.48;5.37;;;;;;;25.33;100.00;98640.84;4364435;32;20388;-71
2022/08/22 11:28:08;;;;;;;13.70;5.20;;;;;;;25.47;100.00;98626.59;4362120;32;20035;-68
2022/08/22 11:31:02;;;;;;;11.38;5.68;;;;;;;25.10;100.00;98627.69;4363613;32;20069;-73
2022/08/22 11:33:48;;;;;;;7.35;4.55;;;;;;;25.48;100.00;98641.94;4363137;32;20055;-70
2022/08/22 11:36:29;;;;;;;10.75;5.37;;;;;;;25.57;100.00;98637.03;4355737;32;20089;-69
2022/08/22 11:39:08;;;;;;;6.15;5.05;;;;;;;25.35;100.00;98606.25;4347728;32;20055;-68
2022/08/22 11:41:43;;;;;;;11.10;5.30;;;;;;;25.65;100.00;98641.56;4345204;32;20062;-68
2022/08/22 11:44:23;;;;;;;8.30;5.50;;;;;;;25.47;100.00;98640.38;4330877;33;20035;-69
2022/08/22 11:46:54;;;;;;;11.68;6.18;;;;;;;25.46;100.00;98638.75;4352122;32;20076;-69
2022/08/22 11:49:49;;;;;;;6.05;5.53;;;;;;;25.51;100.00;98635.72;4350087;32;20062;-69
2022/08/22 11:52:49;;;;;;;10.68;5.53;;;;;;;25.58;100.00;98641.41;4351395;32;20040;-69
2022/08/22 11:55:30;;;;;;;8.60;5.57;;;;;;;24.87;100.00;98634.97;4345589;32;20069;-70
2022/08/22 11:58:08;;;;;;;14.30;7.05;;;;;;;25.06;100.00;98645.28;4329941;33;20390;-74
2022/08/22 12:00:55;;;;;;;12.02;6.00;;;;;;;25.15;100.00;98635.66;4315394;33;20066;-71
2022/08/22 12:03:44;;;;;;;11.38;6.28;;;;;;;25.18;100.00;98645.19;4337577;32;20066;-69
2022/08/22 12:06:35;;;;;;;9.88;5.47;;;;;;;25.21;100.00;98644.47;4344991;32;20407;-71
2022/08/22 12:09:16;;;;;;;8.23;6.28;;;;;;;25.02;100.00;98623.94;4340255;32;20052;-75
2022/08/22 12:11:51;;;;;;;19.42;7.10;;;;;;;25.44;100.00;98641.09;4354926;32;20470;-69
2022/08/22 12:14:25;;;;;;;9.88;5.40;;;;;;;25.68;100.00;98640.84;4362784;32;20120;-69
2022/08/22 12:17:12;;;;;;;9.93;5.90;;;;;;;25.60;100.00;98639.09;4361414;32;20053;-68
2022/08/22 12:20:05;;;;;;;6.00;5.45;;;;;;;25.12;100.00;98624.56;4363330;32;20072;-71
2022/08/22 12:22:54;;;;;;;10.00;6.10;;;;;;;25.12;100.00;98608.03;4366688;32;20072;-68
2022/08/22 12:25:46;;;;;;;11.00;6.37;;;;;;;25.37;100.00;98645.28;4363696;32;20057;-69
2022/08/22 12:28:43;;;;;;;10.15;5.32;;;;;;;25.66;100.00;98643.16;4358202;32;20066;-69